Time;durP1;ratioP1;P1;durP2;ratioP2;P2;SDS_P1;SDS_P2;PMS_P1;PMS_P2;Temp;Humidity;BMP_temperature;BMP_pressure;BME280_temperature;BME280_humidity;BME280_pressure;Samples;Min_cycle;Max_cycle;Signal;HPM_P1;HPM_P2
2021/06/05 00:00:45;;;;;;;21.30;14.90;;;;;;;14.62;84.20;101760.03;4938539;29;20101;-68
2021/06/05 00:03:13;;;;;;;17.25;12.73;;;;;;;14.63;84.08;101759.03;4938688;29;20035;-68
2021/06/05 00:05:42;;;;;;;14.75;11.88;;;;;;;14.66;83.35;101762.25;4954719;28;20093;-68
2021/06/05 00:08:09;;;;;;;15.57;12.50;;;;;;;14.70;82.27;101760.91;4922613;29;20035;-68
2021/06/05 00:10:38;;;;;;;18.95;12.15;;;;;;;14.71;82.26;101767.97;4955493;29;20070;-68
2021/06/05 00:13:13;;;;;;;13.57;11.40;;;;;;;14.71;82.20;101762.56;4955366;29;20477;-68
2021/06/05 00:15:41;;;;;;;13.23;10.32;;;;;;;14.72;82.25;101756.19;4938464;29;20043;-68
2021/06/05 00:18:07;;;;;;;14.85;10.52;;;;;;;14.70;81.57;101758.22;4938301;29;20133;-68
2021/06/05 00:20:34;;;;;;;13.38;10.52;;;;;;;14.71;81.18;101756.38;4955195;29;20184;-68
2021/06/05 00:23:02;;;;;;;12.98;9.73;;;;;;;14.73;81.32;101757.06;4938364;29;20051;-68
2021/06/05 00:25:30;;;;;;;16.27;10.45;;;;;;;14.75;80.48;101746.97;4955037;29;20077;-68
2021/06/05 00:27:56;;;;;;;11.25;9.98;;;;;;;14.78;80.18;101754.69;4954953;29;20093;-68
2021/06/05 00:30:22;;;;;;;15.23;10.80;;;;;;;14.76;79.70;101762.91;4922427;29;20047;-68
2021/06/05 00:32:48;;;;;;;;;;;;;;;14.78;79.77;101760.91;4922890;29;20543;-68
2021/06/05 00:35:13;;;;;;;;;;;;;;;14.75;79.74;101761.25;4938521;29;19918;-68
2021/06/05 00:37:39;;;;;;;15.20;10.33;;;;;;;14.70;79.50;101749.28;4937901;29;19973;-68
2021/06/05 00:40:08;;;;;;;13.00;10.02;;;;;;;14.66;79.33;101747.97;4954725;29;20496;-68
2021/06/05 00:42:34;;;;;;;12.90;8.93;;;;;;;14.67;79.37;101749.63;4938020;29;20039;-68
2021/06/05 00:45:00;;;;;;;14.00;9.13;;;;;;;14.64;79.34;101745.44;4937839;29;20094;-68
2021/06/05 00:47:25;;;;;;;12.40;10.00;;;;;;;14.62;79.40;101743.91;4954609;29;20070;-68
2021/06/05 00:49:53;;;;;;;12.30;9.07;;;;;;;14.60;79.42;101744.06;4954717;29;20279;-68
2021/06/05 00:52:22;;;;;;;12.85;9.07;;;;;;;14.62;78.95;101743.91;4937836;29;20381;-68
2021/06/05 00:54:48;;;;;;;17.35;10.75;;;;;;;14.59;79.14;101739.72;4937833;29;20046;-68
2021/06/05 00:57:14;;;;;;;;;;;;;;;14.60;79.16;101737.88;4922240;29;20114;-68
2021/06/05 00:59:39;;;;;;;13.13;9.43;;;;;;;14.57;79.08;101752.47;4954583;29;20068;-68
2021/06/05 01:02:06;;;;;;;;;;;;;;;14.59;79.27;101749.63;4922508;29;20051;-68
2021/06/05 01:04:33;;;;;;;14.68;10.32;;;;;;;14.54;79.22;101752.81;4937588;29;19925;-68
2021/06/05 01:07:06;;;;;;;14.88;9.85;;;;;;;14.49;79.68;101755.09;4937125;29;20484;-67
2021/06/05 01:09:57;;;;;;;14.10;9.85;;;;;;;14.50;79.26;101757.63;4921834;29;20167;-68
2021/06/05 01:12:48;;;;;;;20.13;10.10;;;;;;;14.53;79.12;101762.66;4937529;29;20066;-68
2021/06/05 01:15:21;;;;;;;18.23;9.98;;;;;;;14.56;78.62;101758.84;4954280;29;20027;-68
2021/06/05 01:17:53;;;;;;;10.73;8.95;;;;;;;14.53;78.81;101756.44;4920397;29;20127;-68
2021/06/05 01:20:57;;;;;;;14.15;8.45;;;;;;;14.50;78.69;101759.47;4921409;29;20031;-68
2021/06/05 01:23:29;;;;;;;12.57;10.00;;;;;;;14.49;78.93;101755.09;4937200;29;20094;-68
2021/06/05 01:26:07;;;;;;;10.88;8.75;;;;;;;14.45;78.98;101759.13;4953747;29;20126;-68
2021/06/05 01:28:46;;;;;;;12.68;9.18;;;;;;;14.44;79.35;101758.25;4937299;29;20058;-68
2021/06/05 01:31:17;;;;;;;13.70;9.13;;;;;;;14.41;79.05;101752.41;4937251;29;20046;-68
2021/06/05 01:33:46;;;;;;;15.77;9.23;;;;;;;14.40;78.78;101756.06;4937066;29;20461;-68
2021/06/05 01:36:16;;;;;;;13.52;9.25;;;;;;;14.41;78.74;101753.22;4921426;29;20031;-68
2021/06/05 01:38:48;;;;;;;15.80;9.02;;;;;;;14.38;78.83;101758.94;4953822;29;20158;-68
2021/06/05 01:41:18;;;;;;;14.57;10.50;;;;;;;14.35;78.72;101759.25;4953898;29;20035;-68
2021/06/05 01:43:46;;;;;;;10.85;9.38;;;;;;;14.35;79.08;101759.25;4936830;29;20488;-68
2021/06/05 01:46:13;;;;;;;12.20;9.40;;;;;;;14.33;78.94;101751.38;4920894;29;20377;-69
2021/06/05 01:48:39;;;;;;;15.23;9.40;;;;;;;14.30;79.08;101748.97;4953520;29;20109;-68
2021/06/05 01:51:09;;;;;;;12.40;9.48;;;;;;;14.27;78.96;101741.25;4936762;29;20055;-68
2021/06/05 01:53:44;;;;;;;11.82;8.82;;;;;;;14.27;78.77;101741.25;4937158;29;20035;-68
2021/06/05 01:56:20;;;;;;;11.98;9.00;;;;;;;14.24;79.12;101746.97;4936453;29;20150;-68
2021/06/05 01:58:50;;;;;;;12.23;8.63;;;;;;;14.21;79.20;101744.63;4920934;29;20035;-68
2021/06/05 02:01:27;;;;;;;16.33;9.63;;;;;;;14.16;79.58;101741.53;4936723;29;20551;-68
2021/06/05 02:03:53;;;;;;;14.30;8.98;;;;;;;14.06;79.72;101747.06;4953438;29;20035;-68
2021/06/05 02:06:24;;;;;;;14.25;9.52;;;;;;;14.05;79.90;101747.22;4936356;29;20042;-68
2021/06/05 02:08:54;;;;;;;11.90;9.20;;;;;;;13.96;80.57;101737.44;4921248;29;20027;-68
2021/06/05 02:11:26;;;;;;;13.00;9.82;;;;;;;13.95;80.38;101741.97;4936872;29;20077;-68
2021/06/05 02:14:09;;;;;;;11.20;9.35;;;;;;;13.90;80.89;101742.44;4936343;29;20444;-68
2021/06/05 02:16:46;;;;;;;15.82;9.95;;;;;;;13.87;81.14;101745.44;4936099;29;20067;-68
2021/06/05 02:19:27;;;;;;;14.25;9.45;;;;;;;13.84;81.03;101743.09;4920551;29;20042;-68
2021/06/05 02:22:29;;;;;;;13.20;9.20;;;;;;;13.79;81.30;101745.44;4952825;29;20043;-68
2021/06/05 02:25:00;;;;;;;13.65;9.07;;;;;;;13.79;81.03;101758.84;4936769;29;20070;-68
2021/06/05 02:27:31;;;;;;;13.20;9.20;;;;;;;13.82;80.46;101758.50;4936044;28;20515;-68
2021/06/05 02:30:00;;;;;;;15.45;9.13;;;;;;;13.85;80.68;101747.44;4936206;29;20142;-68
2021/06/05 02:32:30;;;;;;;11.50;8.75;;;;;;;13.82;80.19;101747.78;4936211;29;20126;-68
2021/06/05 02:35:00;;;;;;;12.70;10.00;;;;;;;13.84;80.68;101744.94;4952982;29;20114;-68
2021/06/05 02:37:40;;;;;;;11.88;8.82;;;;;;;13.81;80.71;101745.25;4936150;29;20035;-68
2021/06/05 02:40:10;;;;;;;12.05;9.38;;;;;;;13.77;80.83;101747.41;4953018;29;20079;-68
2021/06/05 02:42:39;;;;;;;14.05;9.13;;;;;;;13.73;80.81;101741.50;4936297;29;20054;-68
2021/06/05 02:45:14;;;;;;;15.50;9.70;;;;;;;13.71;80.77;101745.34;4920195;29;20046;-68
2021/06/05 02:47:53;;;;;;;9.68;6.45;;;;;;;13.64;80.99;101744.31;4920223;29;20122;-68
2021/06/05 02:50:20;;;;;;;14.20;9.35;;;;;;;13.60;81.33;101740.25;4952957;29;20098;-68
2021/06/05 02:52:46;;;;;;;13.35;10.13;;;;;;;13.58;81.27;101742.25;4920411;29;20043;-68
2021/06/05 02:55:17;;;;;;;12.05;10.02;;;;;;;13.59;81.22;101742.09;4936019;29;20045;-68
2021/06/05 02:57:45;;;;;;;12.52;9.13;;;;;;;13.57;81.16;101730.69;4920231;29;20469;-68
2021/06/05 03:00:16;;;;;;;11.75;8.48;;;;;;;13.59;81.15;101731.38;4952773;29;20027;-68
2021/06/05 03:02:42;;;;;;;18.00;9.65;;;;;;;13.61;80.61;101733.91;4920390;29;20035;-68
2021/06/05 03:05:09;;;;;;;11.65;8.77;;;;;;;13.62;80.21;101732.91;4952854;29;20054;-68
2021/06/05 03:07:35;;;;;;;12.57;8.55;;;;;;;13.72;80.18;101737.16;4920072;29;20042;-68
2021/06/05 03:10:04;;;;;;;11.07;8.45;;;;;;;13.76;79.84;101743.03;4952745;29;20537;-68
2021/06/05 03:12:31;;;;;;;15.52;9.55;;;;;;;13.79;79.65;101741.88;4935906;29;20031;-68
2021/06/05 03:14:56;;;;;;;21.13;9.20;;;;;;;13.82;79.37;101739.72;4935904;29;20106;-68
2021/06/05 03:17:22;;;;;;;17.05;7.80;;;;;;;13.82;79.42;101742.41;4952513;29;20094;-67
2021/06/05 03:19:47;;;;;;;14.27;8.33;;;;;;;13.90;79.14;101744.28;4935855;29;20623;-68
2021/06/05 03:22:13;;;;;;;13.40;8.70;;;;;;;13.95;78.93;101750.00;4920197;29;20043;-68
2021/06/05 03:24:44;;;;;;;9.85;8.43;;;;;;;13.97;79.27;101750.69;4935977;29;20042;-68
2021/06/05 03:27:11;;;;;;;15.80;8.75;;;;;;;13.96;78.22;101754.41;4935528;29;20031;-68
2021/06/05 03:29:41;;;;;;;14.48;7.47;;;;;;;13.99;78.79;101750.53;4935749;29;20036;-68
2021/06/05 03:32:08;;;;;;;14.15;8.52;;;;;;;14.08;78.97;101754.94;4935754;29;20357;-68
2021/06/05 03:34:34;;;;;;;12.80;9.32;;;;;;;14.08;78.54;101752.28;4935643;29;20031;-68
2021/06/05 03:37:00;;;;;;;;;;;;;;;14.14;78.89;101752.47;4936017;29;20157;-68
2021/06/05 03:39:28;;;;;;;10.07;8.52;;;;;;;14.08;77.93;101753.09;4935654;29;19977;-68
2021/06/05 03:41:57;;;;;;;11.90;8.57;;;;;;;14.18;77.77;101747.59;4938769;29;20523;-68
2021/06/05 03:44:23;;;;;;;16.83;8.75;;;;;;;14.22;77.53;101748.97;4955975;29;20117;-68
2021/06/05 03:46:51;;;;;;;15.35;9.10;;;;;;;14.30;77.33;101740.09;4938867;29;20035;-68
2021/06/05 03:49:17;;;;;;;12.68;8.23;;;;;;;14.38;77.34;101752.72;4938950;29;20049;-68
2021/06/05 03:51:42;;;;;;;14.00;8.57;;;;;;;14.43;76.97;101745.84;4955880;29;20707;-68
2021/06/05 03:54:10;;;;;;;16.02;8.77;;;;;;;14.44;76.94;101752.06;4955837;29;20047;-68
2021/06/05 03:56:36;;;;;;;12.90;7.43;;;;;;;14.46;76.79;101750.06;4938550;29;20035;-68
2021/06/05 03:59:03;;;;;;;11.98;8.05;;;;;;;14.53;76.52;101751.09;4955576;29;20043;-67
2021/06/05 04:01:29;;;;;;;12.75;8.73;;;;;;;14.51;76.08;101758.47;4938690;29;20539;-68
2021/06/05 04:03:57;;;;;;;10.55;7.80;;;;;;;14.57;76.39;101752.47;4958431;28;20030;-68
2021/06/05 04:06:25;;;;;;;10.48;7.68;;;;;;;14.64;76.53;101750.81;4974312;28;20054;-68
2021/06/05 04:08:52;;;;;;;10.07;8.32;;;;;;;14.63;76.48;101745.59;4974874;28;20027;-68
2021/06/05 04:11:18;;;;;;;16.20;9.30;;;;;;;14.72;76.35;101766.94;4989942;28;20567;-68
2021/06/05 04:13:47;;;;;;;10.15;7.93;;;;;;;14.78;76.17;101755.53;4990023;28;20133;-68
2021/06/05 04:16:14;;;;;;;12.85;9.02;;;;;;;14.79;75.93;101756.38;4955076;28;20043;-67
2021/06/05 04:18:42;;;;;;;11.50;8.73;;;;;;;14.89;75.97;101761.59;4974560;28;20035;-67
2021/06/05 04:21:12;;;;;;;12.90;9.75;;;;;;;14.95;75.21;101755.56;4974679;28;20081;-67
2021/06/05 04:23:38;;;;;;;10.90;8.48;;;;;;;15.03;74.91;101750.19;4974682;28;20119;-67
2021/06/05 04:26:06;;;;;;;13.15;9.18;;;;;;;15.05;74.64;101761.59;4974284;28;20045;-67
2021/06/05 04:28:32;;;;;;;13.85;8.88;;;;;;;15.07;75.16;101759.59;4973361;28;20097;-67
2021/06/05 04:30:58;;;;;;;10.93;8.50;;;;;;;15.08;74.12;101755.91;4963549;28;20035;-67
2021/06/05 04:33:26;;;;;;;11.48;9.25;;;;;;;15.18;73.73;101761.94;4974348;28;20177;-67
2021/06/05 04:35:53;;;;;;;13.75;8.77;;;;;;;15.12;72.99;101757.22;4941041;28;20423;-67
2021/06/05 04:38:19;;;;;;;14.20;9.65;;;;;;;15.27;73.23;101759.28;4974343;28;20129;-67
2021/06/05 04:40:44;;;;;;;12.32;8.65;;;;;;;15.36;73.23;101752.88;4974246;28;20034;-67
2021/06/05 04:43:11;;;;;;;15.73;9.57;;;;;;;15.58;73.19;101752.16;4957177;28;20669;-67
2021/06/05 04:45:38;;;;;;;12.00;8.63;;;;;;;15.77;72.88;101750.13;4989453;28;20137;-67
2021/06/05 04:48:05;;;;;;;14.15;8.70;;;;;;;15.94;72.27;101750.94;4973879;28;20709;-67
2021/06/05 04:50:31;;;;;;;;;;;;;;;15.99;71.66;101743.16;4974549;28;20105;-67
2021/06/05 04:52:57;;;;;;;14.13;8.40;;;;;;;16.06;71.64;101764.84;4972975;28;20372;-67
2021/06/05 04:55:23;;;;;;;12.77;8.52;;;;;;;16.05;70.87;101753.25;4974051;28;20027;-67
2021/06/05 04:57:51;;;;;;;11.75;8.05;;;;;;;16.18;71.09;101753.53;4972799;28;20133;-67
2021/06/05 05:00:22;;;;;;;12.38;8.57;;;;;;;16.31;70.77;101752.97;4973736;28;20134;-67
2021/06/05 05:02:47;;;;;;;12.07;8.90;;;;;;;16.44;69.94;101753.25;4972972;28;20049;-67
2021/06/05 05:05:13;;;;;;;9.30;7.63;;;;;;;16.58;70.11;101754.34;4956823;28;20038;-68
2021/06/05 05:07:38;;;;;;;12.90;8.68;;;;;;;16.61;69.86;101743.19;4973360;28;20049;-67
2021/06/05 05:10:05;;;;;;;9.17;7.83;;;;;;;16.54;69.43;101753.00;4973562;28;20464;-67
2021/06/05 05:12:30;;;;;;;11.10;7.95;;;;;;;16.80;69.49;101752.72;4973325;28;20073;-68
2021/06/05 05:14:56;;;;;;;11.73;8.10;;;;;;;16.85;69.05;101755.69;4973099;28;20058;-68
2021/06/05 05:17:22;;;;;;;8.77;7.88;;;;;;;16.98;68.54;101759.69;4972080;28;20364;-67
2021/06/05 05:19:47;;;;;;;8.53;7.63;;;;;;;17.09;69.07;101756.53;4972350;28;20145;-67
2021/06/05 05:22:12;;;;;;;9.90;8.30;;;;;;;17.44;67.46;101755.06;4973581;28;20046;-67
2021/06/05 05:24:38;;;;;;;9.63;7.93;;;;;;;17.58;66.22;101753.41;4973532;28;20118;-68
2021/06/05 05:27:04;;;;;;;7.90;6.57;;;;;;;17.94;65.74;101755.44;4956170;28;20101;-68
2021/06/05 05:29:29;;;;;;;16.08;8.73;;;;;;;18.15;64.88;101749.25;4973369;28;20044;-68
2021/06/05 05:31:55;;;;;;;10.10;8.07;;;;;;;18.28;63.53;101752.13;4973337;28;20046;-68
2021/06/05 05:34:20;;;;;;;11.33;8.00;;;;;;;18.44;62.44;101750.22;4956162;28;20066;-68
2021/06/05 05:36:45;;;;;;;9.70;7.33;;;;;;;18.53;61.82;101747.22;4973034;28;20031;-68
2021/06/05 05:39:15;;;;;;;9.77;7.70;;;;;;;18.10;62.64;101746.28;4973240;28;20349;-68
2021/06/05 05:41:42;;;;;;;9.00;6.78;;;;;;;17.67;65.63;101749.59;4972196;28;20050;-68
2021/06/05 05:44:07;;;;;;;8.50;6.75;;;;;;;17.72;66.29;101744.50;4972579;28;20064;-68
2021/06/05 05:46:35;;;;;;;9.30;7.97;;;;;;;17.65;65.31;101748.09;4963147;28;20053;-68
2021/06/05 05:49:00;;;;;;;7.55;6.63;;;;;;;17.92;66.35;101752.06;4961796;28;20026;-68
2021/06/05 05:51:26;;;;;;;12.45;7.45;;;;;;;18.14;63.42;101748.44;4972899;28;20035;-68
2021/06/05 05:53:52;;;;;;;8.27;7.40;;;;;;;18.66;64.04;101742.97;4972167;28;20342;-68
2021/06/05 05:56:20;;;;;;;14.63;8.65;;;;;;;19.30;60.90;101747.59;4971701;28;20081;-68
2021/06/05 05:58:48;;;;;;;10.13;7.43;;;;;;;20.07;57.77;101746.66;4971844;28;20420;-68
2021/06/05 06:01:15;;;;;;;10.45;7.18;;;;;;;21.09;54.30;101750.28;4972885;28;20047;-68
2021/06/05 06:03:40;;;;;;;8.45;6.47;;;;;;;21.17;55.03;101762.84;4972227;28;20062;-68
2021/06/05 06:06:06;;;;;;;7.40;6.13;;;;;;;22.33;53.45;101752.19;4972641;28;20048;-68
2021/06/05 06:08:33;;;;;;;9.82;6.43;;;;;;;23.08;50.80;101754.28;4971836;28;20031;-68
2021/06/05 06:10:59;;;;;;;9.15;6.28;;;;;;;23.48;49.29;101762.09;4972706;28;20035;-68
2021/06/05 06:13:24;;;;;;;8.33;6.70;;;;;;;22.54;49.24;101751.03;4971516;28;20038;-69
2021/06/05 06:15:49;;;;;;;9.23;6.10;;;;;;;22.97;49.84;101758.53;4972454;28;20480;-68
2021/06/05 06:18:16;;;;;;;8.60;6.23;;;;;;;22.91;50.92;101747.69;4971564;28;20144;-68
2021/06/05 06:20:45;;;;;;;9.48;5.97;;;;;;;23.50;48.46;101753.72;4971545;28;20037;-68
2021/06/05 06:23:23;;;;;;;9.73;6.65;;;;;;;22.93;48.54;101759.19;4987680;28;20030;-68
2021/06/05 06:25:50;;;;;;;9.60;6.53;;;;;;;22.27;50.23;101758.50;4972242;28;20441;-68
2021/06/05 06:28:20;;;;;;;11.70;6.45;;;;;;;22.83;49.70;101756.97;4970066;28;20035;-69
2021/06/05 06:30:45;;;;;;;13.68;6.55;;;;;;;22.63;50.14;101762.50;4953669;28;20437;-69
2021/06/05 06:33:13;;;;;;;8.73;6.30;;;;;;;22.46;50.14;101756.75;4970569;28;20093;-69
2021/06/05 06:35:38;;;;;;;8.65;6.97;;;;;;;23.42;49.44;101760.28;4970410;28;20089;-69
2021/06/05 06:38:06;;;;;;;8.23;6.35;;;;;;;23.63;47.95;101763.69;4969263;28;20369;-69
2021/06/05 06:40:34;;;;;;;7.68;5.47;;;;;;;24.10;47.55;101766.75;4970162;28;20039;-69
2021/06/05 06:43:00;;;;;;;8.73;6.05;;;;;;;24.57;46.19;101764.28;4969879;28;20026;-69
2021/06/05 06:45:25;;;;;;;;;;;;;;;24.83;45.81;101761.16;4955820;28;20035;-69
2021/06/05 06:47:52;;;;;;;10.88;6.00;;;;;;;23.97;47.88;101765.81;4971150;28;19925;-69
2021/06/05 06:50:20;;;;;;;6.57;5.85;;;;;;;24.31;47.18;101760.00;4971385;28;20467;-69
2021/06/05 06:52:46;;;;;;;6.82;5.63;;;;;;;24.43;45.75;101764.44;4972124;28;20042;-69
2021/06/05 06:55:12;;;;;;;8.90;6.20;;;;;;;24.18;46.03;101770.00;4972203;28;20035;-69
2021/06/05 06:57:37;;;;;;;;;;;;;;;24.33;45.07;101766.06;4971432;28;20061;-69
2021/06/05 07:00:11;;;;;;;6.38;5.68;;;;;;;23.69;48.38;101770.94;4971166;28;19922;-69
2021/06/05 07:02:36;;;;;;;10.68;6.18;;;;;;;24.34;47.22;101757.63;4955161;28;20157;-69
2021/06/05 07:05:03;;;;;;;9.73;5.30;;;;;;;23.32;47.81;101768.97;4962401;28;20113;-69
2021/06/05 07:07:29;;;;;;;8.52;5.70;;;;;;;23.22;49.56;101765.06;4961928;28;20456;-69
2021/06/05 07:09:54;;;;;;;6.05;5.25;;;;;;;22.87;49.65;101754.63;4965564;28;20054;-69
2021/06/05 07:12:19;;;;;;;7.60;5.57;;;;;;;23.49;49.56;101754.78;4971725;28;20035;-69
2021/06/05 07:14:45;;;;;;;5.93;5.33;;;;;;;23.80;47.57;101753.88;4973413;28;20396;-69
2021/06/05 07:17:10;;;;;;;8.47;5.73;;;;;;;23.46;47.03;101750.63;4955199;29;20544;-69
2021/06/05 07:19:35;;;;;;;8.27;5.33;;;;;;;23.56;48.38;101761.00;4956299;29;20067;-69
2021/06/05 07:22:02;;;;;;;9.10;5.33;;;;;;;22.89;47.49;101758.78;4967397;28;20039;-69
2021/06/05 07:24:28;;;;;;;8.02;5.18;;;;;;;23.34;48.54;101760.56;4975612;28;20035;-69
2021/06/05 07:26:53;;;;;;;7.90;4.90;;;;;;;23.48;48.50;101764.84;4965162;28;20457;-69
2021/06/05 07:29:19;;;;;;;7.93;5.40;;;;;;;23.36;47.42;101758.44;4958598;28;20035;-69
2021/06/05 07:31:49;;;;;;;5.85;5.25;;;;;;;24.12;47.94;101759.19;4958654;28;20457;-69
2021/06/05 07:34:15;;;;;;;8.93;5.20;;;;;;;24.21;46.06;101755.91;4955011;28;21019;-69
2021/06/05 07:36:45;;;;;;;6.78;4.93;;;;;;;24.41;46.52;101761.09;4955562;28;20034;-69
2021/06/05 07:39:13;;;;;;;5.85;4.78;;;;;;;24.05;47.16;101751.06;4975174;28;20046;-69
2021/06/05 07:41:41;;;;;;;6.97;6.30;;;;;;;22.92;47.66;101750.19;4941891;28;20508;-69
2021/06/05 07:44:07;;;;;;;7.43;5.50;;;;;;;23.05;49.81;101756.63;4974996;28;20038;-69
2021/06/05 07:46:33;;;;;;;9.13;6.22;;;;;;;22.93;48.86;101754.56;4942048;28;20139;-69
2021/06/05 07:48:58;;;;;;;8.43;5.22;;;;;;;22.89;49.84;101755.22;4958212;28;20218;-69
2021/06/05 07:51:24;;;;;;;10.07;5.83;;;;;;;23.22;48.56;101749.56;4958213;28;20066;-69
2021/06/05 07:53:49;;;;;;;8.60;6.00;;;;;;;23.23;47.65;101747.69;4958023;28;20940;-69
2021/06/05 07:56:16;;;;;;;6.77;6.00;;;;;;;23.30;48.30;101748.47;4974835;28;20129;-69
2021/06/05 07:58:42;;;;;;;7.93;5.38;;;;;;;23.59;47.61;101745.03;4957778;28;20062;-69
2021/06/05 08:01:07;;;;;;;7.80;5.55;;;;;;;24.07;46.72;101739.91;4958141;28;20097;-69
2021/06/05 08:03:33;;;;;;;6.50;5.47;;;;;;;23.78;46.70;101742.34;4974868;28;20053;-69
2021/06/05 08:05:58;;;;;;;8.07;6.10;;;;;;;24.06;46.94;101735.53;4941522;28;20093;-69
2021/06/05 08:08:23;;;;;;;10.33;6.07;;;;;;;24.55;48.28;101736.38;4957801;28;20070;-69
2021/06/05 08:10:49;;;;;;;11.50;5.73;;;;;;;24.67;46.35;101739.16;4957921;28;20023;-69
2021/06/05 08:13:15;;;;;;;7.28;5.32;;;;;;;24.68;44.21;101736.22;4957732;28;20461;-69
2021/06/05 08:15:45;;;;;;;10.38;4.63;;;;;;;23.94;47.17;101739.03;4963024;28;20081;-69
2021/06/05 08:18:11;;;;;;;7.63;4.75;;;;;;;24.28;45.36;101736.72;4973457;28;20054;-70
2021/06/05 08:20:47;;;;;;;7.22;4.70;;;;;;;24.94;45.18;101739.59;4973484;28;20761;-69
2021/06/05 08:23:14;;;;;;;6.30;4.85;;;;;;;24.80;44.94;101737.06;4973504;28;20042;-69
2021/06/05 08:25:39;;;;;;;;;;;;;;;24.83;44.63;101739.31;4974421;28;20062;-70
2021/06/05 08:28:07;;;;;;;5.55;4.50;;;;;;;24.34;45.75;101743.97;4974078;28;19913;-70
2021/06/05 08:30:40;;;;;;;4.88;4.15;;;;;;;23.98;47.37;101745.69;4974479;28;20070;-69
2021/06/05 08:33:06;;;;;;;6.70;5.03;;;;;;;24.95;44.77;101738.53;4974450;28;20786;-70
2021/06/05 08:35:32;;;;;;;7.05;5.50;;;;;;;24.84;42.78;101741.00;4974209;28;20045;-70
2021/06/05 08:37:57;;;;;;;5.40;4.90;;;;;;;25.60;44.46;101738.47;4957074;28;20368;-70
2021/06/05 08:40:39;;;;;;;5.37;4.40;;;;;;;25.90;43.22;101743.00;4973439;28;20042;-70
2021/06/05 08:43:05;;;;;;;6.78;5.10;;;;;;;25.72;42.56;101729.44;4974271;28;20089;-70
2021/06/05 08:45:31;;;;;;;7.13;5.17;;;;;;;25.28;41.53;101740.72;4941150;28;20042;-70
2021/06/05 08:47:57;;;;;;;5.57;3.80;;;;;;;25.22;44.17;101737.06;4973927;28;20286;-70
2021/06/05 08:50:28;;;;;;;6.00;5.40;;;;;;;24.46;43.65;101745.94;4973784;28;20043;-70
2021/06/05 08:53:00;;;;;;;6.80;4.93;;;;;;;25.07;43.29;101744.81;4974028;28;20067;-70
2021/06/05 08:55:39;;;;;;;10.85;5.47;;;;;;;25.38;41.88;101746.47;4974167;28;20093;-70
2021/06/05 08:58:29;;;;;;;5.13;4.63;;;;;;;26.17;41.78;101745.19;4956684;28;20050;-70
2021/06/05 09:01:02;;;;;;;10.77;4.60;;;;;;;26.19;40.68;101746.59;4973857;28;20035;-70
2021/06/05 09:03:30;;;;;;;7.22;4.25;;;;;;;26.31;41.51;101744.63;4956967;28;20467;-70
2021/06/05 09:06:00;;;;;;;5.68;5.07;;;;;;;25.47;41.92;101738.72;4973456;28;20027;-70
2021/06/05 09:08:27;;;;;;;6.43;4.60;;;;;;;26.24;41.81;101743.13;4956620;28;20364;-70
2021/06/05 09:10:55;;;;;;;9.55;4.65;;;;;;;26.19;39.60;101740.28;4956700;28;20852;-70
2021/06/05 09:13:21;;;;;;;8.77;4.00;;;;;;;25.87;41.64;101738.84;4956672;28;20043;-70
2021/06/05 09:15:46;;;;;;;;;;;;;;;26.74;40.80;101740.56;4942842;28;20046;-70
2021/06/05 09:18:12;;;;;;;9.07;5.50;;;;;;;25.47;41.36;101739.56;4973510;28;19918;-70
2021/06/05 09:21:02;;;;;;;5.85;4.93;;;;;;;25.87;41.52;101740.72;4956575;28;20054;-70
2021/06/05 09:23:34;;;;;;;5.90;4.80;;;;;;;25.30;42.04;101748.69;4973533;28;20491;-70
2021/06/05 09:26:27;;;;;;;13.65;4.80;;;;;;;26.11;42.99;101739.59;4973087;28;20030;-70
2021/06/05 09:29:07;;;;;;;6.82;5.35;;;;;;;26.08;40.78;101744.72;4954098;28;20043;-70
2021/06/05 09:31:33;;;;;;;8.88;4.45;;;;;;;25.46;41.05;101750.72;4956222;28;20093;-70
2021/06/05 09:33:58;;;;;;;4.85;4.45;;;;;;;26.27;40.31;101739.91;4973349;28;20030;-70
2021/06/05 09:36:34;;;;;;;14.23;4.60;;;;;;;27.02;38.22;101743.47;4955899;28;20488;-70
2021/06/05 09:39:07;;;;;;;7.15;4.43;;;;;;;27.32;38.26;101744.03;4972362;28;20043;-70
2021/06/05 09:41:42;;;;;;;6.90;4.40;;;;;;;27.33;37.45;101747.59;4956054;28;20093;-70
2021/06/05 09:44:13;;;;;;;8.88;4.35;;;;;;;27.24;37.11;101747.19;4956305;28;20086;-70
2021/06/05 09:46:52;;;;;;;4.10;3.70;;;;;;;27.13;36.78;101742.56;4972879;28;20158;-70
2021/06/05 09:49:27;;;;;;;5.20;4.13;;;;;;;27.34;37.06;101736.34;4956102;28;20038;-70
2021/06/05 09:52:06;;;;;;;4.47;3.80;;;;;;;26.16;37.39;101740.78;4956131;28;20038;-71
2021/06/05 09:54:40;;;;;;;6.50;3.90;;;;;;;26.71;37.28;101732.84;4956029;28;20038;-71
2021/06/05 09:57:22;;;;;;;6.60;3.83;;;;;;;27.36;38.13;101731.44;4972600;28;20113;-70
2021/06/05 10:00:13;;;;;;;5.70;3.85;;;;;;;28.12;37.01;101735.50;4971959;28;20078;-70
2021/06/05 10:02:46;;;;;;;7.03;4.00;;;;;;;27.97;35.98;101733.41;4955163;28;20042;-70
2021/06/05 10:05:17;;;;;;;6.13;3.80;;;;;;;27.49;36.61;101734.94;4972200;28;20034;-70
2021/06/05 10:07:43;;;;;;;5.57;4.72;;;;;;;27.19;36.96;101725.13;4955004;28;20053;-70
2021/06/05 10:10:22;;;;;;;4.60;3.88;;;;;;;27.90;36.00;101730.84;4972308;28;20516;-70
2021/06/05 10:12:50;;;;;;;5.18;4.03;;;;;;;27.11;37.09;101731.03;4955153;28;20138;-70
2021/06/05 10:15:20;;;;;;;7.22;3.88;;;;;;;27.04;38.08;101725.75;4955669;28;20457;-70
2021/06/05 10:17:51;;;;;;;5.70;4.05;;;;;;;27.34;36.24;101719.09;4972184;28;20062;-70
2021/06/05 10:20:48;;;;;;;6.18;4.03;;;;;;;27.42;38.23;101737.00;4972260;28;20041;-70
2021/06/05 10:23:24;;;;;;;6.32;4.97;;;;;;;28.23;36.69;101722.75;4955241;28;20043;-70
2021/06/05 10:25:54;;;;;;;5.90;4.57;;;;;;;27.72;34.50;101721.00;4955239;28;20031;-70
2021/06/05 10:28:31;;;;;;;6.97;3.35;;;;;;;28.01;35.62;101720.84;4939367;28;20043;-70
2021/06/05 10:31:11;;;;;;;4.45;3.65;;;;;;;28.55;35.58;101734.66;4972067;28;20371;-70
2021/06/05 10:34:10;;;;;;;5.53;3.75;;;;;;;28.68;34.52;101725.19;4971951;28;20034;-70
2021/06/05 10:36:45;;;;;;;6.07;4.43;;;;;;;27.79;35.46;101732.63;4972017;28;20027;-70
2021/06/05 10:39:13;;;;;;;4.27;3.87;;;;;;;27.78;35.84;101724.63;4972393;28;20129;-70
2021/06/05 10:41:56;;;;;;;5.22;3.67;;;;;;;28.22;35.95;101726.59;4971435;28;20082;-70
2021/06/05 10:44:23;;;;;;;6.18;3.65;;;;;;;27.08;35.79;101723.31;4972111;28;20350;-70
2021/06/05 10:47:03;;;;;;;5.10;4.60;;;;;;;25.86;38.15;101719.91;4971094;28;20050;-70
2021/06/05 10:49:31;;;;;;;5.43;4.47;;;;;;;25.91;40.05;101714.56;4972439;28;20066;-70
2021/06/05 10:52:26;;;;;;;6.55;4.55;;;;;;;26.31;39.83;101719.19;4975334;28;20046;-70
2021/06/05 10:54:55;;;;;;;;;;;;;;;25.67;38.69;101714.56;4958776;28;20051;-70
2021/06/05 10:57:23;;;;;;;6.30;4.38;;;;;;;25.12;39.65;101719.53;4975872;28;19914;-70
2021/06/05 10:59:56;;;;;;;6.95;4.15;;;;;;;24.96;40.24;101716.44;4975176;28;20072;-70
2021/06/05 11:02:36;;;;;;;8.23;4.38;;;;;;;24.72;40.46;101703.78;4975477;28;20440;-70
2021/06/05 11:05:31;;;;;;;4.85;4.38;;;;;;;24.05;43.20;101703.88;4974884;28;20457;-70
2021/06/05 11:08:10;;;;;;;6.25;4.75;;;;;;;24.69;43.88;101705.09;4974966;28;20038;-70
2021/06/05 11:10:50;;;;;;;6.03;4.90;;;;;;;25.75;41.29;101707.88;4975611;28;20038;-70
2021/06/05 11:13:37;;;;;;;6.72;4.85;;;;;;;27.69;40.86;101710.53;4975800;28;20045;-70
2021/06/05 11:16:13;;;;;;;5.30;4.30;;;;;;;28.62;37.13;101705.06;4968038;28;20045;-70
2021/06/05 11:18:55;;;;;;;9.18;5.47;;;;;;;26.95;38.97;101703.38;4975325;28;20564;-70
2021/06/05 11:21:23;;;;;;;6.70;5.18;;;;;;;26.22;39.44;101702.34;4958869;28;20058;-70
2021/06/05 11:23:58;;;;;;;8.57;4.65;;;;;;;26.57;39.64;101701.34;4958461;28;20396;-70
2021/06/05 11:26:36;;;;;;;8.15;5.15;;;;;;;27.39;37.65;101704.63;4975429;28;20053;-71
2021/06/05 11:29:05;;;;;;;7.80;5.03;;;;;;;26.89;39.61;101695.34;4975543;28;20031;-70
2021/06/05 11:31:46;;;;;;;7.10;5.25;;;;;;;26.77;38.71;101697.31;4975629;28;20045;-70
2021/06/05 11:34:48;;;;;;;9.52;5.63;;;;;;;26.84;37.87;101693.34;4990592;28;20039;-70
2021/06/05 11:37:14;;;;;;;9.88;5.53;;;;;;;26.76;39.04;101701.94;4975315;28;20031;-70